createdAt,value
2023-07-24T00:01:58.334Z,55.70
2023-07-24T00:04:25.334Z,55.60
2023-07-24T00:06:52.434Z,55.70
2023-07-24T00:09:19.445Z,55.70
2023-07-24T00:11:46.440Z,55.70
2023-07-24T00:14:13.914Z,55.80
2023-07-24T00:16:40.947Z,55.80
2023-07-24T00:19:09.393Z,55.80
2023-07-24T00:21:36.426Z,55.80
2023-07-24T00:24:03.567Z,55.90
2023-07-24T00:26:31.064Z,55.90
2023-07-24T00:28:58.303Z,56.00
2023-07-24T00:31:25.503Z,56.00
2023-07-24T00:33:52.573Z,56.10
2023-07-24T00:36:20.926Z,56.00
2023-07-24T00:38:47.905Z,56.10
2023-07-24T00:41:15.009Z,56.10
2023-07-24T00:43:42.331Z,56.10
2023-07-24T00:46:10.588Z,56.10
2023-07-24T00:48:37.790Z,56.40
2023-07-24T00:51:05.445Z,56.20
2023-07-24T00:53:33.997Z,56.30
2023-07-24T00:56:01.149Z,56.40
2023-07-24T00:58:29.078Z,56.40
2023-07-24T01:00:56.245Z,56.40
2023-07-24T01:03:29.936Z,56.40
2023-07-24T01:05:57.150Z,57.00
2023-07-24T01:08:24.399Z,56.50
2023-07-24T01:10:52.846Z,56.40
2023-07-24T01:13:25.833Z,56.60
2023-07-24T01:16:01.567Z,56.50
2023-07-24T01:18:31.079Z,56.60
2023-07-24T01:20:59.796Z,56.50
2023-07-24T01:26:21.873Z,56.70
2023-07-24T01:28:49.139Z,56.60
2023-07-24T01:31:17.756Z,56.60
2023-07-24T01:33:45.426Z,56.60
2023-07-24T01:36:14.469Z,56.70
2023-07-24T01:38:42.722Z,56.70
2023-07-24T01:41:10.095Z,56.70
2023-07-24T01:43:38.620Z,56.70
2023-07-24T01:46:05.871Z,56.70
2023-07-24T01:48:32.947Z,56.90
2023-07-24T01:50:59.924Z,56.80
2023-07-24T01:53:26.988Z,56.80
2023-07-24T01:55:53.989Z,56.80
2023-07-24T01:58:21.087Z,56.70
2023-07-24T02:00:49.450Z,56.80
2023-07-24T02:03:16.743Z,56.70
2023-07-24T02:05:43.990Z,56.70
2023-07-24T02:08:11.074Z,56.80
2023-07-24T02:10:39.058Z,56.70
2023-07-24T02:13:08.462Z,56.80
2023-07-24T02:15:35.706Z,56.80
2023-07-24T02:18:04.104Z,56.80
2023-07-24T02:20:31.100Z,56.90
2023-07-24T02:22:58.281Z,56.80
2023-07-24T02:25:25.290Z,56.80
2023-07-24T02:27:52.348Z,56.80
2023-07-24T02:30:19.333Z,56.70
2023-07-24T02:32:46.341Z,56.90
2023-07-24T02:35:14.831Z,56.80
2023-07-24T02:37:41.805Z,56.80
2023-07-24T02:40:09.923Z,56.90
2023-07-24T02:42:36.951Z,56.90
2023-07-24T02:45:04.852Z,57.00
2023-07-24T02:47:31.935Z,56.90
2023-07-24T02:49:59.014Z,57.00
2023-07-24T02:52:27.319Z,57.20
2023-07-24T02:54:55.187Z,57.10
2023-07-24T02:57:22.254Z,57.10
2023-07-24T02:59:49.321Z,57.10
2023-07-24T03:02:16.455Z,57.10
2023-07-24T03:04:43.457Z,57.10
2023-07-24T03:07:10.496Z,57.20
2023-07-24T03:09:38.843Z,57.20
2023-07-24T03:12:06.642Z,57.20
2023-07-24T03:14:33.641Z,57.20
2023-07-24T03:17:03.335Z,57.20
2023-07-24T03:19:30.694Z,57.20
2023-07-24T03:21:57.688Z,57.20
2023-07-24T03:24:24.878Z,57.20
2023-07-24T03:26:53.315Z,57.20
2023-07-24T03:29:20.289Z,57.20
2023-07-24T03:31:47.343Z,57.30
2023-07-24T03:34:14.530Z,57.40
2023-07-24T03:36:44.197Z,57.40
2023-07-24T03:39:11.413Z,57.40
2023-07-24T03:41:38.746Z,57.40
2023-07-24T03:44:07.230Z,57.50
2023-07-24T03:46:34.495Z,57.60
2023-07-24T03:49:01.625Z,57.60
2023-07-24T03:51:28.663Z,57.70
2023-07-24T03:53:55.624Z,57.80
2023-07-24T03:56:22.704Z,57.80
2023-07-24T03:58:49.732Z,57.90
2023-07-24T04:01:18.193Z,57.90
2023-07-24T04:03:45.979Z,57.90
2023-07-24T04:06:13.163Z,57.90
2023-07-24T04:08:40.293Z,58.00
2023-07-24T04:11:07.328Z,58.10
2023-07-24T04:13:35.555Z,58.10
2023-07-24T04:16:02.569Z,58.70
2023-07-24T04:18:31.095Z,58.40
2023-07-24T04:20:58.185Z,58.30
2023-07-24T04:23:25.469Z,58.20
2023-07-24T04:25:52.509Z,58.30
2023-07-24T04:28:19.670Z,58.50
2023-07-24T04:30:46.862Z,58.40
2023-07-24T04:33:13.797Z,58.50
2023-07-24T04:35:42.181Z,58.60
2023-07-24T04:38:09.183Z,58.70
2023-07-24T04:40:36.260Z,58.80
2023-07-24T04:43:03.343Z,58.80
2023-07-24T04:45:30.421Z,58.80
2023-07-24T04:47:57.497Z,58.80
2023-07-24T04:50:24.547Z,58.90
2023-07-24T04:52:52.912Z,58.90
2023-07-24T04:55:19.897Z,58.90
2023-07-24T04:57:47.023Z,59.00
2023-07-24T05:00:14.922Z,59.00
2023-07-24T05:02:42.051Z,58.80
2023-07-24T05:05:10.182Z,59.70
2023-07-24T05:07:37.224Z,59.00
2023-07-24T05:10:06.942Z,59.10
2023-07-24T05:12:33.944Z,59.10
2023-07-24T05:15:00.925Z,59.10
2023-07-24T05:17:28.115Z,59.10
2023-07-24T05:19:55.382Z,59.00
2023-07-24T05:22:22.369Z,59.10
2023-07-24T05:24:49.385Z,59.20
2023-07-24T05:27:17.883Z,59.10
2023-07-24T05:29:45.819Z,59.10
2023-07-24T05:32:12.836Z,59.00
2023-07-24T05:34:39.869Z,58.90
2023-07-24T05:37:07.098Z,58.80
2023-07-24T05:39:34.397Z,58.80
2023-07-24T05:42:01.497Z,58.80
2023-07-24T05:44:29.913Z,58.90
2023-07-24T05:46:57.249Z,58.70
2023-07-24T05:49:24.319Z,58.50
2023-07-24T05:51:51.368Z,58.50
2023-07-24T05:54:18.411Z,58.40
2023-07-24T05:56:45.484Z,58.40
2023-07-24T05:59:12.767Z,58.40
2023-07-24T06:01:41.149Z,58.20
2023-07-24T06:04:08.452Z,58.20
2023-07-24T06:06:37.365Z,58.20
2023-07-24T06:09:04.503Z,58.20
2023-07-24T06:11:31.556Z,58.00
2023-07-24T06:13:59.009Z,58.00
2023-07-24T06:16:26.139Z,58.00
2023-07-24T06:18:54.606Z,58.00
2023-07-24T06:21:21.623Z,58.00
2023-07-24T06:23:48.629Z,58.00
2023-07-24T06:26:15.806Z,57.90
2023-07-24T06:28:43.900Z,57.80
2023-07-24T06:31:10.988Z,57.90
2023-07-24T06:33:38.042Z,57.90
2023-07-24T06:36:10.092Z,57.60
2023-07-24T06:38:37.363Z,57.50
2023-07-24T06:41:04.450Z,57.20
2023-07-24T06:43:31.554Z,57.30
2023-07-24T06:45:58.546Z,56.80
2023-07-24T06:48:25.557Z,56.90
2023-07-24T06:50:52.754Z,56.70
2023-07-24T06:53:21.150Z,56.90
2023-07-24T06:55:48.207Z,56.80
2023-07-24T06:58:15.290Z,56.80
2023-07-24T07:00:42.712Z,56.70
2023-07-24T07:03:09.824Z,56.40
2023-07-24T07:05:37.057Z,56.50
2023-07-24T07:08:04.509Z,56.50
2023-07-24T07:10:33.443Z,56.60
2023-07-24T07:13:00.570Z,56.60
2023-07-24T07:15:27.607Z,57.20
2023-07-24T07:17:54.701Z,56.50
2023-07-24T07:20:21.901Z,56.10
2023-07-24T07:22:48.965Z,56.10
2023-07-24T07:25:16.191Z,55.90
2023-07-24T07:27:44.543Z,56.10
2023-07-24T07:30:12.684Z,56.20
2023-07-24T07:32:39.919Z,56.00
2023-07-24T07:35:08.300Z,55.70
2023-07-24T07:37:35.436Z,55.80
2023-07-24T07:40:02.571Z,55.40
2023-07-24T07:42:29.615Z,55.50
2023-07-24T07:44:58.237Z,55.50
2023-07-24T07:47:25.292Z,55.40
2023-07-24T07:49:52.854Z,55.40
2023-07-24T07:52:21.682Z,55.10
2023-07-24T07:54:48.984Z,55.00
2023-07-24T07:57:16.333Z,54.80
2023-07-24T07:59:43.850Z,54.60
2023-07-24T08:02:12.241Z,54.80
2023-07-24T08:04:39.427Z,54.70
2023-07-24T08:07:06.703Z,54.50
2023-07-24T08:09:39.194Z,55.00
2023-07-24T08:12:08.828Z,54.40
2023-07-24T08:14:36.063Z,54.40
2023-07-24T08:17:03.257Z,54.20
2023-07-24T08:19:31.944Z,54.00
2023-07-24T08:21:59.004Z,53.80
2023-07-24T08:24:26.089Z,54.20
2023-07-24T08:26:53.181Z,54.10
2023-07-24T08:29:20.145Z,54.10
2023-07-24T08:31:47.169Z,53.90
2023-07-24T08:34:14.509Z,53.90
2023-07-24T08:36:42.962Z,53.70
2023-07-24T08:39:09.978Z,53.80
2023-07-24T08:41:38.593Z,53.70
2023-07-24T08:44:07.969Z,53.40
2023-07-24T08:46:37.744Z,53.20
2023-07-24T08:49:05.517Z,52.90
2023-07-24T08:51:33.655Z,52.40
2023-07-24T08:54:02.912Z,52.80
2023-07-24T08:56:30.294Z,52.70
2023-07-24T08:58:57.624Z,52.60
2023-07-24T09:01:25.783Z,52.50
2023-07-24T09:03:53.398Z,52.50
2023-07-24T09:06:21.237Z,52.30
2023-07-24T09:08:48.265Z,52.20
2023-07-24T09:11:16.928Z,51.80
2023-07-24T09:13:44.626Z,52.00
2023-07-24T09:16:22.565Z,51.70
2023-07-24T09:18:59.689Z,51.80
2023-07-24T09:21:37.394Z,51.90
2023-07-24T09:24:12.367Z,51.70
2023-07-24T09:26:58.514Z,51.10
2023-07-24T09:29:32.579Z,51.30
2023-07-24T09:32:00.153Z,51.50
2023-07-24T09:34:27.392Z,51.20
2023-07-24T09:36:54.493Z,50.70
2023-07-24T09:39:24.811Z,50.30
2023-07-24T09:41:53.692Z,50.80
2023-07-24T09:44:20.753Z,51.10
2023-07-24T09:49:28.931Z,50.90
2023-07-24T09:52:04.285Z,50.60
2023-07-24T09:54:33.528Z,50.60
2023-07-24T09:57:15.320Z,50.80
2023-07-24T09:59:49.800Z,51.30
2023-07-24T10:02:18.515Z,50.80
2023-07-24T10:04:46.404Z,50.80
2023-07-24T10:07:15.308Z,50.70
2023-07-24T10:09:44.027Z,50.30
2023-07-24T10:12:12.607Z,50.60
2023-07-24T10:17:11.903Z,50.40
2023-07-24T10:19:44.055Z,49.90
2023-07-24T10:22:18.236Z,50.20
2023-07-24T10:24:45.399Z,50.20
2023-07-24T10:27:14.185Z,49.90
2023-07-24T10:29:41.291Z,50.20
2023-07-24T10:32:19.429Z,50.20
2023-07-24T10:34:56.535Z,50.20
2023-07-24T10:37:33.452Z,50.90
2023-07-24T10:40:04.246Z,50.10
2023-07-24T10:42:35.084Z,50.20
2023-07-24T10:45:09.883Z,50.30
2023-07-24T10:47:37.391Z,50.70
2023-07-24T10:50:06.901Z,50.00
2023-07-24T10:52:34.713Z,50.20
2023-07-24T10:55:03.210Z,50.00
2023-07-24T10:57:32.363Z,50.00
2023-07-24T11:00:00.703Z,50.00
2023-07-24T11:02:27.751Z,49.90
2023-07-24T11:04:55.156Z,50.00
2023-07-24T11:07:22.233Z,49.70
2023-07-24T11:09:49.234Z,49.70
2023-07-24T11:12:17.714Z,49.80
2023-07-24T11:14:50.719Z,49.90
2023-07-24T11:17:18.418Z,49.80
2023-07-24T11:19:45.624Z,49.70
2023-07-24T11:22:12.857Z,49.80
2023-07-24T11:24:44.289Z,49.70
2023-07-24T11:27:14.929Z,49.60
2023-07-24T11:29:42.016Z,49.70
2023-07-24T11:32:12.687Z,49.80
2023-07-24T11:34:40.005Z,49.70
2023-07-24T11:37:07.654Z,49.70
2023-07-24T11:39:34.640Z,49.70
2023-07-24T11:42:03.014Z,49.60
2023-07-24T11:44:30.221Z,49.60
2023-07-24T11:47:04.566Z,49.60
2023-07-24T11:49:33.732Z,49.60
2023-07-24T11:52:01.935Z,49.50
2023-07-24T11:54:29.233Z,49.50
2023-07-24T11:56:56.216Z,49.50
2023-07-24T11:59:23.333Z,49.30
2023-07-24T12:01:50.460Z,50.00
2023-07-24T12:04:18.047Z,49.30
2023-07-24T12:06:46.779Z,49.50
2023-07-24T12:09:13.972Z,49.30
2023-07-24T12:11:45.552Z,49.10
2023-07-24T12:14:14.312Z,49.10
2023-07-24T12:16:41.491Z,49.10
2023-07-24T12:21:40.742Z,49.00
2023-07-24T12:24:09.140Z,49.00
2023-07-24T12:26:36.106Z,49.00
2023-07-24T12:29:03.162Z,49.60
2023-07-24T12:31:30.764Z,48.90
2023-07-24T12:33:58.135Z,48.90
2023-07-24T12:36:25.511Z,48.90
2023-07-24T12:38:52.572Z,48.80
2023-07-24T12:41:21.432Z,48.80
2023-07-24T12:43:48.671Z,48.80
2023-07-24T12:46:15.955Z,48.80
2023-07-24T12:48:42.948Z,48.70
2023-07-24T12:51:10.149Z,48.70
2023-07-24T12:53:38.072Z,48.70
2023-07-24T12:56:11.131Z,48.80
2023-07-24T12:58:39.498Z,48.70
2023-07-24T13:01:07.781Z,48.70
2023-07-24T13:03:34.870Z,48.80
2023-07-24T13:06:02.005Z,49.40
2023-07-24T13:08:29.053Z,48.90
2023-07-24T13:10:56.158Z,48.90
2023-07-24T13:13:23.768Z,49.10
2023-07-24T13:15:52.424Z,49.10
2023-07-24T13:18:28.598Z,49.20
2023-07-24T13:20:56.419Z,49.30
2023-07-24T13:23:23.670Z,49.40
2023-07-24T13:25:53.971Z,49.50
2023-07-24T13:28:21.079Z,49.40
2023-07-24T13:30:48.248Z,49.30
2023-07-24T13:33:17.062Z,49.30
2023-07-24T13:35:44.140Z,49.40
2023-07-24T13:38:11.320Z,49.30
2023-07-24T13:40:38.506Z,49.40
2023-07-24T13:43:06.154Z,49.90
2023-07-24T13:45:33.185Z,49.20
2023-07-24T13:48:00.455Z,49.30
2023-07-24T13:50:29.168Z,49.30
2023-07-24T13:52:56.200Z,49.40
2023-07-24T13:55:23.331Z,49.60
2023-07-24T13:57:50.455Z,49.60
2023-07-24T14:00:18.581Z,49.70
2023-07-24T14:02:45.857Z,49.70
2023-07-24T14:05:12.899Z,49.70
2023-07-24T14:07:41.556Z,49.70
2023-07-24T14:10:10.111Z,49.70
2023-07-24T14:12:37.282Z,49.80
2023-07-24T14:15:05.349Z,50.00
2023-07-24T14:17:32.808Z,49.90
2023-07-24T14:19:59.844Z,49.90
2023-07-24T14:22:28.479Z,49.80
2023-07-24T14:24:57.016Z,49.90
2023-07-24T14:27:24.307Z,50.00
2023-07-24T14:29:51.457Z,50.00
2023-07-24T14:32:18.502Z,50.20
2023-07-24T14:34:46.727Z,50.10
2023-07-24T14:37:13.831Z,50.10
2023-07-24T14:39:40.898Z,50.20
2023-07-24T14:42:09.507Z,50.30
2023-07-24T14:44:36.521Z,50.30
2023-07-24T14:47:04.106Z,50.30
2023-07-24T14:49:31.543Z,50.80
2023-07-24T14:51:59.754Z,50.30
2023-07-24T14:54:26.926Z,50.20
2023-07-24T14:56:59.549Z,50.20
2023-07-24T14:59:36.079Z,50.30
2023-07-24T15:02:03.084Z,50.40
2023-07-24T15:04:30.218Z,50.30
2023-07-24T15:06:57.273Z,50.30
2023-07-24T15:09:24.509Z,50.30
2023-07-24T15:11:51.726Z,50.40
2023-07-24T15:14:18.986Z,50.40
2023-07-24T15:16:47.430Z,50.40
2023-07-24T15:19:14.561Z,50.50
2023-07-24T15:21:43.180Z,50.70
2023-07-24T15:24:10.207Z,50.60
2023-07-24T15:26:37.375Z,50.70
2023-07-24T15:29:04.519Z,50.80
2023-07-24T15:31:36.439Z,50.80
2023-07-24T15:34:06.310Z,51.00
2023-07-24T15:36:33.559Z,51.20
2023-07-24T15:39:00.587Z,51.20
2023-07-24T15:41:27.785Z,51.30
2023-07-24T15:43:55.008Z,51.20
2023-07-24T15:46:22.029Z,51.10
2023-07-24T15:48:49.192Z,51.10
2023-07-24T15:51:17.569Z,51.10
2023-07-24T15:53:46.811Z,51.10
2023-07-24T15:56:16.038Z,51.40
2023-07-24T15:58:44.001Z,51.40
2023-07-24T16:01:11.338Z,51.90
2023-07-24T16:03:38.689Z,51.60
2023-07-24T16:06:06.311Z,51.80
2023-07-24T16:08:34.868Z,52.30
2023-07-24T16:11:02.591Z,53.20
2023-07-24T16:13:29.593Z,52.50
2023-07-24T16:15:56.616Z,52.30
2023-07-24T16:18:25.021Z,52.20
2023-07-24T16:20:52.250Z,52.10
2023-07-24T16:23:22.409Z,52.10
2023-07-24T16:25:50.886Z,52.20
2023-07-24T16:28:17.932Z,52.20
2023-07-24T16:30:47.754Z,53.00
2023-07-24T16:35:49.901Z,53.00
2023-07-24T16:38:17.161Z,52.50
2023-07-24T16:40:45.672Z,52.50
2023-07-24T16:43:17.197Z,52.50
2023-07-24T16:46:04.147Z,52.50
2023-07-24T16:48:32.518Z,52.70
2023-07-24T16:50:59.878Z,52.90
2023-07-24T16:53:27.319Z,53.30
2023-07-24T16:55:54.383Z,53.00
2023-07-24T16:58:23.257Z,52.80
2023-07-24T17:00:50.715Z,52.80
2023-07-24T17:03:17.923Z,52.80
2023-07-24T17:05:45.215Z,52.90
2023-07-24T17:08:12.556Z,52.90
2023-07-24T17:10:43.830Z,53.00
2023-07-24T17:13:11.416Z,53.00
2023-07-24T17:15:40.038Z,53.00
2023-07-24T17:18:07.262Z,53.10
2023-07-24T17:20:34.369Z,53.10
2023-07-24T17:23:01.565Z,53.00
2023-07-24T17:25:28.625Z,53.10
2023-07-24T17:27:56.043Z,53.10
2023-07-24T17:30:23.442Z,53.20
2023-07-24T17:32:51.892Z,53.20
2023-07-24T17:35:18.956Z,53.30
2023-07-24T17:37:46.118Z,53.20
2023-07-24T17:40:13.341Z,53.20
2023-07-24T17:45:15.658Z,53.40
2023-07-24T17:47:42.776Z,53.50
2023-07-24T17:50:11.852Z,53.60
2023-07-24T17:52:39.095Z,54.00
2023-07-24T17:57:34.275Z,53.90
2023-07-24T18:00:02.091Z,53.90
2023-07-24T18:02:29.140Z,53.80
2023-07-24T18:04:56.448Z,54.30
2023-07-24T18:09:52.082Z,54.10
2023-07-24T18:12:19.558Z,55.20
2023-07-24T18:14:46.866Z,54.60
2023-07-24T18:17:13.867Z,54.60
2023-07-24T18:19:41.006Z,54.50
2023-07-24T18:22:08.415Z,54.50
2023-07-24T18:24:37.075Z,54.60
2023-07-24T18:27:04.821Z,54.60
2023-07-24T18:29:33.900Z,54.70
2023-07-24T18:32:00.994Z,54.70
2023-07-24T18:34:28.234Z,55.30
2023-07-24T18:36:58.383Z,54.90
2023-07-24T18:39:25.465Z,54.90
2023-07-24T18:41:53.985Z,54.90
2023-07-24T18:44:21.450Z,54.90
2023-07-24T18:46:48.513Z,55.20
2023-07-24T18:49:15.623Z,55.10
2023-07-24T18:51:42.718Z,55.20
2023-07-24T18:54:10.125Z,55.20
2023-07-24T18:56:37.188Z,55.20
2023-07-24T18:59:06.051Z,55.30
2023-07-24T19:01:33.425Z,55.40
2023-07-24T19:04:01.326Z,55.40
2023-07-24T19:06:28.481Z,55.40
2023-07-24T19:08:55.806Z,55.40
2023-07-24T19:11:23.109Z,55.60
2023-07-24T19:13:50.196Z,55.60
2023-07-24T19:16:18.781Z,55.70
2023-07-24T19:18:45.970Z,56.00
2023-07-24T19:21:13.310Z,56.40
2023-07-24T19:23:40.339Z,55.90
2023-07-24T19:26:09.652Z,56.00
2023-07-24T19:28:36.696Z,55.90
2023-07-24T19:31:04.063Z,56.10
2023-07-24T19:33:32.568Z,56.10
2023-07-24T19:36:00.070Z,56.20
2023-07-24T19:38:27.218Z,56.30
2023-07-24T19:40:57.904Z,56.30
2023-07-24T19:43:25.217Z,56.40
2023-07-24T19:45:52.413Z,56.40
2023-07-24T19:48:20.337Z,56.50
2023-07-24T19:50:50.555Z,56.60
2023-07-24T19:53:19.332Z,56.70
2023-07-24T19:55:47.946Z,56.70
2023-07-24T19:58:26.522Z,56.70
2023-07-24T20:00:59.709Z,56.90
2023-07-24T20:03:27.094Z,56.90
2023-07-24T20:05:57.613Z,57.00
2023-07-24T20:08:26.204Z,57.00
2023-07-24T20:10:58.140Z,57.70
2023-07-24T20:13:25.597Z,57.20
2023-07-24T20:15:54.049Z,57.20
2023-07-24T20:18:21.342Z,57.30
2023-07-24T20:20:49.184Z,57.40
2023-07-24T20:23:19.777Z,57.50
2023-07-24T20:25:49.488Z,57.40
2023-07-24T20:28:18.347Z,57.40
2023-07-24T20:30:46.194Z,57.50
2023-07-24T20:33:13.259Z,57.60
2023-07-24T20:35:47.752Z,57.60
2023-07-24T20:38:25.075Z,57.70
2023-07-24T20:40:52.442Z,57.80
2023-07-24T20:43:19.498Z,57.80
2023-07-24T20:45:46.798Z,57.80
2023-07-24T20:48:14.227Z,57.80
2023-07-24T20:50:41.558Z,57.80
2023-07-24T20:53:08.538Z,57.80
2023-07-24T20:55:37.452Z,57.90
2023-07-24T20:58:04.606Z,58.00
2023-07-24T21:00:32.165Z,58.00
2023-07-24T21:02:59.369Z,58.10
2023-07-24T21:05:29.882Z,58.20
2023-07-24T21:07:59.719Z,58.10
2023-07-24T21:10:26.797Z,58.10
2023-07-24T21:12:55.231Z,58.20
2023-07-24T21:15:22.326Z,58.80
2023-07-24T21:17:49.318Z,58.40
2023-07-24T21:20:16.462Z,58.30
2023-07-24T21:22:43.491Z,58.50
2023-07-24T21:25:10.701Z,58.50
2023-07-24T21:27:38.182Z,58.60
2023-07-24T21:30:09.041Z,58.50
2023-07-24T21:32:36.109Z,58.50
2023-07-24T21:35:03.425Z,58.60
2023-07-24T21:37:30.544Z,58.60
2023-07-24T21:39:57.574Z,58.60
2023-07-24T21:42:24.642Z,58.60
2023-07-24T21:44:51.985Z,58.60
2023-07-24T21:47:20.385Z,58.60
2023-07-24T21:49:47.590Z,58.70
2023-07-24T21:52:14.777Z,58.80
2023-07-24T21:54:42.294Z,58.80
2023-07-24T21:57:09.912Z,58.80
2023-07-24T21:59:36.964Z,58.80
2023-07-24T22:02:04.274Z,58.90
2023-07-24T22:04:33.047Z,58.90
2023-07-24T22:07:00.074Z,58.90
2023-07-24T22:09:27.557Z,59.00
2023-07-24T22:11:54.603Z,59.00
2023-07-24T22:14:21.969Z,59.10
2023-07-24T22:16:49.143Z,59.10
2023-07-24T22:19:18.973Z,59.10
2023-07-24T22:21:48.279Z,59.20
2023-07-24T22:24:15.419Z,59.20
2023-07-24T22:26:42.392Z,59.20
2023-07-24T22:29:09.396Z,59.30
2023-07-24T22:34:08.519Z,59.40
2023-07-24T22:36:35.570Z,59.50
2023-07-24T22:39:06.568Z,59.50
2023-07-24T22:41:33.806Z,59.40
2023-07-24T22:44:00.932Z,59.40
2023-07-24T22:46:27.980Z,59.50
2023-07-24T22:48:55.177Z,59.50
2023-07-24T22:51:22.344Z,59.50
2023-07-24T22:53:49.599Z,59.50
2023-07-24T22:56:17.965Z,59.50
2023-07-24T22:59:21.186Z,59.60
2023-07-24T23:01:48.866Z,59.80
2023-07-24T23:04:17.253Z,59.60
2023-07-24T23:06:44.550Z,59.60
2023-07-24T23:09:13.226Z,59.70
2023-07-24T23:11:41.806Z,59.60
2023-07-24T23:14:08.970Z,59.70
2023-07-24T23:16:36.389Z,59.70
2023-07-24T23:19:03.762Z,59.70
2023-07-24T23:21:31.091Z,59.80
2023-07-24T23:23:58.558Z,59.80
2023-07-24T23:26:25.608Z,59.80
2023-07-24T23:28:57.082Z,59.80
2023-07-24T23:31:24.138Z,59.90
2023-07-24T23:33:51.365Z,59.90
2023-07-24T23:36:18.454Z,59.90
2023-07-24T23:38:45.576Z,59.90
2023-07-24T23:41:12.770Z,59.80
2023-07-24T23:43:39.868Z,59.90
2023-07-24T23:46:12.150Z,59.90
2023-07-24T23:48:40.272Z,60.00
2023-07-24T23:51:13.766Z,60.00
2023-07-24T23:53:40.820Z,59.90
2023-07-24T23:56:08.409Z,60.00
2023-07-24T23:58:35.466Z,60.00
